sensor_id;sensor_type;location;lat;lon;timestamp;P1;durP1;ratioP1;P2;durP2;ratioP2
32242;SDS011;18731;42.830;24.390;2022-08-11T03:01:27;7.53;;;6.50;;
32242;SDS011;18731;42.830;24.390;2022-08-11T03:04:06;8.48;;;5.88;;
32242;SDS011;18731;42.830;24.390;2022-08-11T03:06:40;9.27;;;7.22;;
32242;SDS011;18731;42.830;24.390;2022-08-11T03:09:45;9.13;;;6.65;;
32242;SDS011;18731;42.830;24.390;2022-08-11T03:12:20;8.07;;;6.03;;
32242;SDS011;18731;42.830;24.390;2022-08-11T03:15:21;8.20;;;6.13;;
32242;SDS011;18731;42.830;24.390;2022-08-11T03:18:24;7.75;;;6.70;;
32242;SDS011;18731;42.830;24.390;2022-08-11T03:21:08;7.72;;;6.30;;
32242;SDS011;18731;42.830;24.390;2022-08-11T03:34:23;7.60;;;6.80;;
32242;SDS011;18731;42.830;24.390;2022-08-11T03:39:53;14.38;;;9.00;;
32242;SDS011;18731;42.830;24.390;2022-08-11T03:45:27;7.38;;;6.63;;
32242;SDS011;18731;42.830;24.390;2022-08-11T03:48:45;9.32;;;6.93;;
32242;SDS011;18731;42.830;24.390;2022-08-11T03:51:18;7.55;;;6.55;;
32242;SDS011;18731;42.830;24.390;2022-08-11T03:54:04;8.25;;;6.63;;
32242;SDS011;18731;42.830;24.390;2022-08-11T04:02:03;8.43;;;6.47;;
32242;SDS011;18731;42.830;24.390;2022-08-11T04:28:13;8.48;;;7.57;;
32242;SDS011;18731;42.830;24.390;2022-08-11T04:34:02;11.98;;;6.40;;
32242;SDS011;18731;42.830;24.390;2022-08-11T04:45:02;10.23;;;6.53;;
32242;SDS011;18731;42.830;24.390;2022-08-11T04:48:00;12.93;;;6.65;;
32242;SDS011;18731;42.830;24.390;2022-08-11T04:56:58;8.50;;;5.50;;
32242;SDS011;18731;42.830;24.390;2022-08-11T05:00:00;10.07;;;5.40;;
32242;SDS011;18731;42.830;24.390;2022-08-11T05:17:08;6.88;;;4.80;;
32242;SDS011;18731;42.830;24.390;2022-08-11T05:19:57;7.47;;;4.65;;
32242;SDS011;18731;42.830;24.390;2022-08-11T05:22:49;9.50;;;4.70;;
32242;SDS011;18731;42.830;24.390;2022-08-11T05:25:34;7.82;;;5.55;;
32242;SDS011;18731;42.830;24.390;2022-08-11T05:31:25;15.48;;;8.45;;
32242;SDS011;18731;42.830;24.390;2022-08-11T05:34:24;7.70;;;5.35;;
32242;SDS011;18731;42.830;24.390;2022-08-11T05:37:16;5.90;;;5.03;;
32242;SDS011;18731;42.830;24.390;2022-08-11T05:39:48;9.90;;;5.50;;
32242;SDS011;18731;42.830;24.390;2022-08-11T05:42:40;7.60;;;5.35;;
32242;SDS011;18731;42.830;24.390;2022-08-11T05:45:31;7.55;;;5.60;;
32242;SDS011;18731;42.830;24.390;2022-08-11T05:48:17;10.27;;;6.40;;
32242;SDS011;18731;42.830;24.390;2022-08-11T05:51:02;8.20;;;5.03;;
32242;SDS011;18731;42.830;24.390;2022-08-11T05:53:54;11.18;;;5.50;;
32242;SDS011;18731;42.830;24.390;2022-08-11T05:56:46;9.23;;;4.53;;
32242;SDS011;18731;42.830;24.390;2022-08-11T05:59:18;6.57;;;5.43;;
32242;SDS011;18731;42.830;24.390;2022-08-11T06:01:45;6.45;;;5.40;;
32242;SDS011;18731;42.830;24.390;2022-08-11T06:04:30;8.07;;;4.60;;
32242;SDS011;18731;42.830;24.390;2022-08-11T06:07:03;8.15;;;4.75;;
32242;SDS011;18731;42.830;24.390;2022-08-11T06:12:15;5.95;;;4.60;;
32242;SDS011;18731;42.830;24.390;2022-08-11T06:14:43;9.63;;;4.10;;
32242;SDS011;18731;42.830;24.390;2022-08-11T06:17:13;4.97;;;4.30;;
32242;SDS011;18731;42.830;24.390;2022-08-11T06:19:50;6.97;;;4.28;;
32242;SDS011;18731;42.830;24.390;2022-08-11T06:22:25;6.43;;;4.50;;
32242;SDS011;18731;42.830;24.390;2022-08-11T06:24:54;5.82;;;4.60;;
32242;SDS011;18731;42.830;24.390;2022-08-11T06:27:23;9.10;;;4.35;;
32242;SDS011;18731;42.830;24.390;2022-08-11T06:29:52;8.82;;;4.20;;
32242;SDS011;18731;42.830;24.390;2022-08-11T06:32:20;8.93;;;4.43;;
32242;SDS011;18731;42.830;24.390;2022-08-11T06:38:06;7.60;;;5.18;;
32242;SDS011;18731;42.830;24.390;2022-08-11T06:43:59;22.55;;;8.65;;
32242;SDS011;18731;42.830;24.390;2022-08-11T06:46:29;10.23;;;6.35;;
32242;SDS011;18731;42.830;24.390;2022-08-11T06:48:59;7.13;;;5.20;;
32242;SDS011;18731;42.830;24.390;2022-08-11T06:51:27;12.18;;;6.20;;
32242;SDS011;18731;42.830;24.390;2022-08-11T06:53:54;9.57;;;5.78;;
32242;SDS011;18731;42.830;24.390;2022-08-11T06:56:27;9.80;;;6.10;;
32242;SDS011;18731;42.830;24.390;2022-08-11T06:59:14;11.27;;;5.88;;
32242;SDS011;18731;42.830;24.390;2022-08-11T07:02:04;9.18;;;5.38;;
32242;SDS011;18731;42.830;24.390;2022-08-11T07:04:42;17.48;;;6.32;;
32242;SDS011;18731;42.830;24.390;2022-08-11T07:07:23;9.85;;;4.80;;
32242;SDS011;18731;42.830;24.390;2022-08-11T07:10:37;9.18;;;6.18;;
32242;SDS011;18731;42.830;24.390;2022-08-11T07:13:41;11.65;;;6.32;;
32242;SDS011;18731;42.830;24.390;2022-08-11T07:23:17;12.77;;;4.35;;
32242;SDS011;18731;42.830;24.390;2022-08-11T07:26:02;7.80;;;4.25;;
32242;SDS011;18731;42.830;24.390;2022-08-11T07:28:47;8.60;;;4.18;;
32242;SDS011;18731;42.830;24.390;2022-08-11T07:33:58;12.65;;;4.55;;
32242;SDS011;18731;42.830;24.390;2022-08-11T07:36:35;10.98;;;3.92;;
32242;SDS011;18731;42.830;24.390;2022-08-11T07:39:03;10.18;;;3.67;;
32242;SDS011;18731;42.830;24.390;2022-08-11T07:41:37;6.53;;;3.45;;
32242;SDS011;18731;42.830;24.390;2022-08-11T07:44:03;8.75;;;3.45;;
32242;SDS011;18731;42.830;24.390;2022-08-11T07:46:43;6.35;;;3.35;;
32242;SDS011;18731;42.830;24.390;2022-08-11T07:49:30;8.48;;;3.97;;
32242;SDS011;18731;42.830;24.390;2022-08-11T07:52:17;7.88;;;3.47;;
32242;SDS011;18731;42.830;24.390;2022-08-11T07:55:05;8.57;;;3.40;;
32242;SDS011;18731;42.830;24.390;2022-08-11T07:57:33;5.90;;;3.17;;
32242;SDS011;18731;42.830;24.390;2022-08-11T08:00:18;6.10;;;3.45;;
32242;SDS011;18731;42.830;24.390;2022-08-11T08:08:34;3.25;;;2.95;;
32242;SDS011;18731;42.830;24.390;2022-08-11T08:11:20;4.00;;;3.00;;
32242;SDS011;18731;42.830;24.390;2022-08-11T08:14:08;5.72;;;2.90;;
32242;SDS011;18731;42.830;24.390;2022-08-11T08:16:54;8.60;;;2.90;;
32242;SDS011;18731;42.830;24.390;2022-08-11T08:19:40;5.78;;;2.92;;
32242;SDS011;18731;42.830;24.390;2022-08-11T08:22:09;3.78;;;3.00;;
32242;SDS011;18731;42.830;24.390;2022-08-11T08:24:37;3.45;;;2.90;;
32242;SDS011;18731;42.830;24.390;2022-08-11T08:27:06;6.25;;;2.80;;
32242;SDS011;18731;42.830;24.390;2022-08-11T08:29:36;4.53;;;2.75;;
32242;SDS011;18731;42.830;24.390;2022-08-11T08:32:21;6.28;;;2.83;;
32242;SDS011;18731;42.830;24.390;2022-08-11T08:34:48;6.13;;;2.70;;
32242;SDS011;18731;42.830;24.390;2022-08-11T08:37:19;5.03;;;2.35;;
32242;SDS011;18731;42.830;24.390;2022-08-11T08:39:48;2.78;;;2.50;;
32242;SDS011;18731;42.830;24.390;2022-08-11T08:42:25;4.85;;;2.70;;
32242;SDS011;18731;42.830;24.390;2022-08-11T08:45:04;3.20;;;2.70;;
32242;SDS011;18731;42.830;24.390;2022-08-11T08:47:36;4.63;;;2.58;;
32242;SDS011;18731;42.830;24.390;2022-08-11T08:50:07;3.33;;;2.47;;
32242;SDS011;18731;42.830;24.390;2022-08-11T08:52:36;4.53;;;3.15;;
32242;SDS011;18731;42.830;24.390;2022-08-11T08:55:06;5.85;;;2.50;;
32242;SDS011;18731;42.830;24.390;2022-08-11T08:57:37;3.75;;;2.75;;
32242;SDS011;18731;42.830;24.390;2022-08-11T09:00:05;5.45;;;2.90;;
32242;SDS011;18731;42.830;24.390;2022-08-11T09:02:33;2.92;;;2.65;;
32242;SDS011;18731;42.830;24.390;2022-08-11T09:05:01;7.88;;;2.95;;
32242;SDS011;18731;42.830;24.390;2022-08-11T09:07:28;5.05;;;2.65;;
32242;SDS011;18731;42.830;24.390;2022-08-11T09:09:56;5.05;;;2.85;;
32242;SDS011;18731;42.830;24.390;2022-08-11T09:12:27;9.23;;;2.88;;
32242;SDS011;18731;42.830;24.390;2022-08-11T09:14:55;10.63;;;3.10;;
32242;SDS011;18731;42.830;24.390;2022-08-11T09:17:25;5.13;;;3.33;;
32242;SDS011;18731;42.830;24.390;2022-08-11T09:19:53;3.15;;;2.85;;
32242;SDS011;18731;42.830;24.390;2022-08-11T09:22:31;6.38;;;2.88;;
32242;SDS011;18731;42.830;24.390;2022-08-11T09:25:18;4.97;;;3.08;;
32242;SDS011;18731;42.830;24.390;2022-08-11T09:28:04;3.65;;;2.40;;
32242;SDS011;18731;42.830;24.390;2022-08-11T09:30:34;2.97;;;2.70;;
32242;SDS011;18731;42.830;24.390;2022-08-11T09:33:01;4.88;;;2.60;;
32242;SDS011;18731;42.830;24.390;2022-08-11T09:35:29;3.08;;;2.75;;
32242;SDS011;18731;42.830;24.390;2022-08-11T09:37:58;5.72;;;2.92;;
32242;SDS011;18731;42.830;24.390;2022-08-11T09:40:46;4.47;;;3.20;;
32242;SDS011;18731;42.830;24.390;2022-08-11T09:43:17;10.43;;;4.05;;
32242;SDS011;18731;42.830;24.390;2022-08-11T09:46:03;5.97;;;4.18;;
32242;SDS011;18731;42.830;24.390;2022-08-11T09:48:49;5.38;;;3.78;;
32242;SDS011;18731;42.830;24.390;2022-08-11T09:51:19;9.32;;;4.95;;
32242;SDS011;18731;42.830;24.390;2022-08-11T09:53:46;6.50;;;3.30;;
32242;SDS011;18731;42.830;24.390;2022-08-11T09:56:15;8.57;;;2.78;;
32242;SDS011;18731;42.830;24.390;2022-08-11T09:59:02;5.30;;;2.60;;
32242;SDS011;18731;42.830;24.390;2022-08-11T10:01:31;4.85;;;3.30;;
32242;SDS011;18731;42.830;24.390;2022-08-11T10:04:05;3.97;;;2.50;;
32242;SDS011;18731;42.830;24.390;2022-08-11T10:06:39;3.30;;;2.80;;
32242;SDS011;18731;42.830;24.390;2022-08-11T10:09:26;5.97;;;2.90;;
32242;SDS011;18731;42.830;24.390;2022-08-11T10:11:59;2.75;;;2.47;;
32242;SDS011;18731;42.830;24.390;2022-08-11T10:14:29;4.05;;;2.47;;
32242;SDS011;18731;42.830;24.390;2022-08-11T10:17:16;4.75;;;2.50;;
32242;SDS011;18731;42.830;24.390;2022-08-11T10:19:45;5.13;;;2.47;;
32242;SDS011;18731;42.830;24.390;2022-08-11T10:22:13;2.80;;;2.60;;
32242;SDS011;18731;42.830;24.390;2022-08-11T10:24:58;4.60;;;2.35;;
32242;SDS011;18731;42.830;24.390;2022-08-11T10:27:44;3.15;;;2.42;;
32242;SDS011;18731;42.830;24.390;2022-08-11T10:30:15;3.65;;;2.60;;
32242;SDS011;18731;42.830;24.390;2022-08-11T10:32:59;4.50;;;2.60;;
32242;SDS011;18731;42.830;24.390;2022-08-11T10:35:45;2.55;;;2.20;;
32242;SDS011;18731;42.830;24.390;2022-08-11T10:38:12;5.57;;;2.78;;
32242;SDS011;18731;42.830;24.390;2022-08-11T10:40:39;3.13;;;2.30;;
32242;SDS011;18731;42.830;24.390;2022-08-11T10:43:10;4.60;;;2.22;;
32242;SDS011;18731;42.830;24.390;2022-08-11T10:45:38;2.78;;;2.40;;
32242;SDS011;18731;42.830;24.390;2022-08-11T10:48:25;4.30;;;2.67;;
32242;SDS011;18731;42.830;24.390;2022-08-11T10:50:54;3.38;;;2.40;;
32242;SDS011;18731;42.830;24.390;2022-08-11T10:53:43;5.28;;;2.45;;
32242;SDS011;18731;42.830;24.390;2022-08-11T10:56:31;4.65;;;2.40;;
32242;SDS011;18731;42.830;24.390;2022-08-11T10:59:18;3.00;;;2.40;;
32242;SDS011;18731;42.830;24.390;2022-08-11T11:01:44;3.50;;;2.45;;
32242;SDS011;18731;42.830;24.390;2022-08-11T11:04:12;4.05;;;2.33;;
32242;SDS011;18731;42.830;24.390;2022-08-11T11:09:29;5.22;;;2.47;;
32242;SDS011;18731;42.830;24.390;2022-08-11T11:12:20;4.55;;;2.40;;
32242;SDS011;18731;42.830;24.390;2022-08-11T11:15:35;3.85;;;2.80;;
32242;SDS011;18731;42.830;24.390;2022-08-11T11:18:24;4.20;;;2.10;;
32242;SDS011;18731;42.830;24.390;2022-08-11T11:21:07;3.55;;;2.33;;
32242;SDS011;18731;42.830;24.390;2022-08-11T11:30:09;3.13;;;2.22;;
32242;SDS011;18731;42.830;24.390;2022-08-11T11:38:19;7.10;;;2.65;;
32242;SDS011;18731;42.830;24.390;2022-08-11T11:40:45;2.80;;;2.60;;
32242;SDS011;18731;42.830;24.390;2022-08-11T11:43:32;4.28;;;2.90;;
32242;SDS011;18731;42.830;24.390;2022-08-11T11:45:59;4.72;;;2.45;;
32242;SDS011;18731;42.830;24.390;2022-08-11T11:48:26;2.72;;;2.30;;
32242;SDS011;18731;42.830;24.390;2022-08-11T11:50:52;5.18;;;2.33;;
32242;SDS011;18731;42.830;24.390;2022-08-11T11:53:20;3.58;;;2.55;;
32242;SDS011;18731;42.830;24.390;2022-08-11T11:55:46;3.38;;;2.40;;
32242;SDS011;18731;42.830;24.390;2022-08-11T11:58:13;3.17;;;2.25;;
32242;SDS011;18731;42.830;24.390;2022-08-11T12:00:57;4.55;;;2.40;;
32242;SDS011;18731;42.830;24.390;2022-08-11T12:03:48;2.50;;;2.08;;
32242;SDS011;18731;42.830;24.390;2022-08-11T12:06:15;3.05;;;2.65;;
32242;SDS011;18731;42.830;24.390;2022-08-11T12:08:43;5.13;;;2.08;;
32242;SDS011;18731;42.830;24.390;2022-08-11T12:11:12;5.70;;;2.10;;
32242;SDS011;18731;42.830;24.390;2022-08-11T12:14:09;2.63;;;2.15;;
32242;SDS011;18731;42.830;24.390;2022-08-11T12:16:37;3.33;;;2.15;;
32242;SDS011;18731;42.830;24.390;2022-08-11T12:19:09;4.07;;;2.25;;
32242;SDS011;18731;42.830;24.390;2022-08-11T12:21:37;5.80;;;2.10;;
32242;SDS011;18731;42.830;24.390;2022-08-11T12:24:25;2.47;;;2.08;;
32242;SDS011;18731;42.830;24.390;2022-08-11T12:27:11;4.45;;;2.33;;
32242;SDS011;18731;42.830;24.390;2022-08-11T12:29:57;2.33;;;2.10;;
32242;SDS011;18731;42.830;24.390;2022-08-11T12:32:26;7.60;;;2.20;;
32242;SDS011;18731;42.830;24.390;2022-08-11T12:34:55;3.95;;;2.33;;
32242;SDS011;18731;42.830;24.390;2022-08-11T12:37:43;3.45;;;2.50;;
32242;SDS011;18731;42.830;24.390;2022-08-11T12:40:13;4.05;;;2.13;;
32242;SDS011;18731;42.830;24.390;2022-08-11T12:43:02;4.90;;;2.10;;
32242;SDS011;18731;42.830;24.390;2022-08-11T12:45:53;2.40;;;2.20;;
32242;SDS011;18731;42.830;24.390;2022-08-11T12:48:23;2.65;;;2.20;;
32242;SDS011;18731;42.830;24.390;2022-08-11T12:51:15;4.80;;;2.17;;
32242;SDS011;18731;42.830;24.390;2022-08-11T12:56:41;3.40;;;2.50;;
32242;SDS011;18731;42.830;24.390;2022-08-11T12:59:28;4.18;;;2.35;;
32242;SDS011;18731;42.830;24.390;2022-08-11T13:02:16;2.83;;;2.10;;
32242;SDS011;18731;42.830;24.390;2022-08-11T13:05:03;2.78;;;2.13;;
32242;SDS011;18731;42.830;24.390;2022-08-11T13:07:32;2.22;;;2.03;;
32242;SDS011;18731;42.830;24.390;2022-08-11T13:10:03;3.33;;;2.25;;
32242;SDS011;18731;42.830;24.390;2022-08-11T13:12:31;5.25;;;2.22;;
32242;SDS011;18731;42.830;24.390;2022-08-11T13:15:16;3.50;;;2.30;;
32242;SDS011;18731;42.830;24.390;2022-08-11T13:17:48;4.47;;;2.10;;
32242;SDS011;18731;42.830;24.390;2022-08-11T13:20:20;3.95;;;2.10;;
32242;SDS011;18731;42.830;24.390;2022-08-11T13:22:48;5.90;;;2.05;;
32242;SDS011;18731;42.830;24.390;2022-08-11T13:25:16;7.22;;;4.00;;
32242;SDS011;18731;42.830;24.390;2022-08-11T13:27:45;3.20;;;1.90;;
32242;SDS011;18731;42.830;24.390;2022-08-11T13:30:15;2.63;;;1.90;;
32242;SDS011;18731;42.830;24.390;2022-08-11T13:33:01;2.50;;;1.80;;
32242;SDS011;18731;42.830;24.390;2022-08-11T13:35:31;2.58;;;1.98;;
32242;SDS011;18731;42.830;24.390;2022-08-11T13:38:00;2.28;;;2.08;;
32242;SDS011;18731;42.830;24.390;2022-08-11T13:40:26;2.35;;;2.15;;
32242;SDS011;18731;42.830;24.390;2022-08-11T13:42:53;2.17;;;1.98;;
32242;SDS011;18731;42.830;24.390;2022-08-11T13:45:22;2.83;;;2.00;;
32242;SDS011;18731;42.830;24.390;2022-08-11T13:47:50;3.45;;;2.00;;
32242;SDS011;18731;42.830;24.390;2022-08-11T13:50:19;2.50;;;1.88;;
32242;SDS011;18731;42.830;24.390;2022-08-11T13:52:46;2.78;;;2.15;;
32242;SDS011;18731;42.830;24.390;2022-08-11T13:55:13;3.40;;;2.15;;
32242;SDS011;18731;42.830;24.390;2022-08-11T13:57:53;3.10;;;2.53;;
32242;SDS011;18731;42.830;24.390;2022-08-11T14:00:19;2.17;;;1.98;;
32242;SDS011;18731;42.830;24.390;2022-08-11T14:02:47;2.78;;;2.20;;
32242;SDS011;18731;42.830;24.390;2022-08-11T14:05:17;5.97;;;1.80;;
32242;SDS011;18731;42.830;24.390;2022-08-11T14:07:48;4.35;;;1.92;;
32242;SDS011;18731;42.830;24.390;2022-08-11T14:10:16;3.90;;;2.20;;
32242;SDS011;18731;42.830;24.390;2022-08-11T14:12:52;2.28;;;2.03;;
32242;SDS011;18731;42.830;24.390;2022-08-11T14:15:41;2.08;;;1.65;;
32242;SDS011;18731;42.830;24.390;2022-08-11T14:18:13;2.33;;;1.90;;
32242;SDS011;18731;42.830;24.390;2022-08-11T14:20:53;3.30;;;1.75;;
32242;SDS011;18731;42.830;24.390;2022-08-11T14:23:40;3.60;;;1.90;;
32242;SDS011;18731;42.830;24.390;2022-08-11T14:26:09;3.05;;;1.90;;
32242;SDS011;18731;42.830;24.390;2022-08-11T14:29:00;2.25;;;1.90;;
32242;SDS011;18731;42.830;24.390;2022-08-11T14:31:30;4.70;;;1.67;;
32242;SDS011;18731;42.830;24.390;2022-08-11T14:34:01;2.17;;;1.85;;
32242;SDS011;18731;42.830;24.390;2022-08-11T14:36:29;1.92;;;1.83;;
32242;SDS011;18731;42.830;24.390;2022-08-11T14:39:00;3.03;;;2.13;;
32242;SDS011;18731;42.830;24.390;2022-08-11T14:41:31;2.40;;;2.20;;
32242;SDS011;18731;42.830;24.390;2022-08-11T14:44:15;8.45;;;1.63;;
32242;SDS011;18731;42.830;24.390;2022-08-11T14:47:01;2.67;;;1.90;;
32242;SDS011;18731;42.830;24.390;2022-08-11T14:49:34;2.97;;;1.90;;
32242;SDS011;18731;42.830;24.390;2022-08-11T14:52:03;5.60;;;2.10;;
32242;SDS011;18731;42.830;24.390;2022-08-11T14:54:33;7.15;;;1.80;;
32242;SDS011;18731;42.830;24.390;2022-08-11T14:57:19;3.28;;;2.00;;
32242;SDS011;18731;42.830;24.390;2022-08-11T14:59:47;3.17;;;2.17;;
32242;SDS011;18731;42.830;24.390;2022-08-11T15:02:15;3.00;;;2.03;;
32242;SDS011;18731;42.830;24.390;2022-08-11T15:05:02;3.20;;;1.98;;
32242;SDS011;18731;42.830;24.390;2022-08-11T15:07:33;3.35;;;2.20;;
32242;SDS011;18731;42.830;24.390;2022-08-11T15:10:03;3.60;;;2.20;;
32242;SDS011;18731;42.830;24.390;2022-08-11T15:12:31;6.63;;;4.55;;
32242;SDS011;18731;42.830;24.390;2022-08-11T15:14:59;4.43;;;3.08;;
32242;SDS011;18731;42.830;24.390;2022-08-11T15:17:44;3.28;;;2.08;;
32242;SDS011;18731;42.830;24.390;2022-08-11T15:20:15;2.03;;;1.90;;
32242;SDS011;18731;42.830;24.390;2022-08-11T15:23:02;5.25;;;1.95;;
32242;SDS011;18731;42.830;24.390;2022-08-11T15:26:08;9.40;;;5.07;;
32242;SDS011;18731;42.830;24.390;2022-08-11T15:28:45;3.95;;;2.30;;
32242;SDS011;18731;42.830;24.390;2022-08-11T15:31:31;7.13;;;4.25;;
32242;SDS011;18731;42.830;24.390;2022-08-11T15:34:17;3.63;;;2.05;;
32242;SDS011;18731;42.830;24.390;2022-08-11T15:37:07;5.60;;;2.70;;
32242;SDS011;18731;42.830;24.390;2022-08-11T15:43:01;5.25;;;2.50;;
32242;SDS011;18731;42.830;24.390;2022-08-11T15:45:53;3.55;;;2.42;;
32242;SDS011;18731;42.830;24.390;2022-08-11T15:51:13;3.95;;;2.35;;
32242;SDS011;18731;42.830;24.390;2022-08-11T15:53:51;3.78;;;2.20;;
32242;SDS011;18731;42.830;24.390;2022-08-11T15:56:19;5.28;;;2.35;;
32242;SDS011;18731;42.830;24.390;2022-08-11T15:58:48;6.53;;;1.90;;
32242;SDS011;18731;42.830;24.390;2022-08-11T16:01:34;4.13;;;2.30;;
32242;SDS011;18731;42.830;24.390;2022-08-11T16:04:22;3.47;;;2.28;;
32242;SDS011;18731;42.830;24.390;2022-08-11T16:07:10;2.47;;;2.10;;
32242;SDS011;18731;42.830;24.390;2022-08-11T16:09:43;3.10;;;2.28;;
32242;SDS011;18731;42.830;24.390;2022-08-11T16:12:17;6.43;;;2.20;;
32242;SDS011;18731;42.830;24.390;2022-08-11T16:14:52;3.67;;;2.05;;
32242;SDS011;18731;42.830;24.390;2022-08-11T16:17:40;6.03;;;2.20;;
32242;SDS011;18731;42.830;24.390;2022-08-11T16:20:13;6.00;;;2.40;;
32242;SDS011;18731;42.830;24.390;2022-08-11T16:22:41;2.28;;;2.08;;
32242;SDS011;18731;42.830;24.390;2022-08-11T16:25:13;4.82;;;2.30;;
32242;SDS011;18731;42.830;24.390;2022-08-11T16:27:47;3.67;;;2.40;;
32242;SDS011;18731;42.830;24.390;2022-08-11T16:30:15;4.63;;;2.15;;
32242;SDS011;18731;42.830;24.390;2022-08-11T16:32:42;2.53;;;2.10;;
32242;SDS011;18731;42.830;24.390;2022-08-11T16:35:26;4.22;;;2.10;;
32242;SDS011;18731;42.830;24.390;2022-08-11T16:38:11;3.93;;;2.23;;
32242;SDS011;18731;42.830;24.390;2022-08-11T16:40:57;7.90;;;2.63;;
32242;SDS011;18731;42.830;24.390;2022-08-11T16:43:28;6.32;;;2.15;;
32242;SDS011;18731;42.830;24.390;2022-08-11T16:46:15;11.77;;;6.90;;
32242;SDS011;18731;42.830;24.390;2022-08-11T16:49:10;3.40;;;2.80;;
32242;SDS011;18731;42.830;24.390;2022-08-11T16:51:39;4.97;;;3.45;;
32242;SDS011;18731;42.830;24.390;2022-08-11T16:54:05;6.85;;;4.70;;
32242;SDS011;18731;42.830;24.390;2022-08-11T16:56:33;10.70;;;6.07;;
32242;SDS011;18731;42.830;24.390;2022-08-11T16:59:08;9.02;;;3.33;;
32242;SDS011;18731;42.830;24.390;2022-08-11T17:01:53;4.95;;;2.60;;
32242;SDS011;18731;42.830;24.390;2022-08-11T17:07:24;3.33;;;2.30;;
32242;SDS011;18731;42.830;24.390;2022-08-11T17:10:14;3.47;;;2.67;;
32242;SDS011;18731;42.830;24.390;2022-08-11T17:13:02;3.80;;;2.78;;
32242;SDS011;18731;42.830;24.390;2022-08-11T17:15:35;5.50;;;3.05;;
32242;SDS011;18731;42.830;24.390;2022-08-11T17:18:30;5.68;;;2.53;;
32242;SDS011;18731;42.830;24.390;2022-08-11T17:21:50;6.32;;;2.70;;
32242;SDS011;18731;42.830;24.390;2022-08-11T17:23:59;8.98;;;2.75;;
32242;SDS011;18731;42.830;24.390;2022-08-11T17:26:42;8.07;;;2.92;;
32242;SDS011;18731;42.830;24.390;2022-08-11T17:29:27;4.15;;;2.95;;
32242;SDS011;18731;42.830;24.390;2022-08-11T17:31:58;4.05;;;2.38;;
32242;SDS011;18731;42.830;24.390;2022-08-11T17:34:54;3.20;;;2.60;;
32242;SDS011;18731;42.830;24.390;2022-08-11T17:37:42;4.93;;;2.75;;
32242;SDS011;18731;42.830;24.390;2022-08-11T17:40:11;8.18;;;2.67;;
32242;SDS011;18731;42.830;24.390;2022-08-11T17:42:41;5.30;;;3.58;;
32242;SDS011;18731;42.830;24.390;2022-08-11T17:45:27;4.43;;;3.17;;
32242;SDS011;18731;42.830;24.390;2022-08-11T17:48:12;4.80;;;2.80;;
32242;SDS011;18731;42.830;24.390;2022-08-11T17:51:05;6.60;;;2.70;;
32242;SDS011;18731;42.830;24.390;2022-08-11T17:53:36;3.40;;;3.05;;
32242;SDS011;18731;42.830;24.390;2022-08-11T17:56:24;10.60;;;5.72;;
32242;SDS011;18731;42.830;24.390;2022-08-11T17:59:10;7.82;;;3.63;;
32242;SDS011;18731;42.830;24.390;2022-08-11T18:01:57;5.78;;;3.40;;
32242;SDS011;18731;42.830;24.390;2022-08-11T18:04:43;3.33;;;2.83;;
32242;SDS011;18731;42.830;24.390;2022-08-11T18:07:14;6.32;;;2.95;;
32242;SDS011;18731;42.830;24.390;2022-08-11T18:10:02;4.45;;;2.65;;
32242;SDS011;18731;42.830;24.390;2022-08-11T18:12:49;3.45;;;2.65;;
32242;SDS011;18731;42.830;24.390;2022-08-11T18:15:36;11.27;;;2.90;;
32242;SDS011;18731;42.830;24.390;2022-08-11T18:18:22;4.93;;;2.72;;
32242;SDS011;18731;42.830;24.390;2022-08-11T18:21:06;3.42;;;2.80;;
32242;SDS011;18731;42.830;24.390;2022-08-11T18:23:52;7.93;;;3.00;;
32242;SDS011;18731;42.830;24.390;2022-08-11T18:26:38;6.50;;;2.60;;
32242;SDS011;18731;42.830;24.390;2022-08-11T18:29:28;7.35;;;3.00;;
32242;SDS011;18731;42.830;24.390;2022-08-11T18:32:16;5.75;;;2.92;;
32242;SDS011;18731;42.830;24.390;2022-08-11T18:35:01;6.60;;;3.20;;
32242;SDS011;18731;42.830;24.390;2022-08-11T18:37:50;6.65;;;2.70;;
32242;SDS011;18731;42.830;24.390;2022-08-11T18:40:35;8.05;;;3.17;;
32242;SDS011;18731;42.830;24.390;2022-08-11T18:43:21;6.43;;;2.95;;
32242;SDS011;18731;42.830;24.390;2022-08-11T18:46:08;5.05;;;3.00;;
32242;SDS011;18731;42.830;24.390;2022-08-11T18:49:00;3.33;;;3.03;;
32242;SDS011;18731;42.830;24.390;2022-08-11T18:51:50;4.05;;;2.88;;
32242;SDS011;18731;42.830;24.390;2022-08-11T18:54:36;2.92;;;2.63;;
32242;SDS011;18731;42.830;24.390;2022-08-11T18:57:22;3.50;;;3.20;;
32242;SDS011;18731;42.830;24.390;2022-08-11T19:00:07;4.30;;;3.30;;
32242;SDS011;18731;42.830;24.390;2022-08-11T19:02:52;4.88;;;3.10;;
32242;SDS011;18731;42.830;24.390;2022-08-11T19:05:39;6.25;;;3.00;;
32242;SDS011;18731;42.830;24.390;2022-08-11T19:08:26;6.25;;;3.15;;
32242;SDS011;18731;42.830;24.390;2022-08-11T19:11:13;3.70;;;3.13;;
32242;SDS011;18731;42.830;24.390;2022-08-11T19:13:59;3.97;;;3.33;;
32242;SDS011;18731;42.830;24.390;2022-08-11T19:16:45;6.22;;;3.35;;
32242;SDS011;18731;42.830;24.390;2022-08-11T19:19:31;6.57;;;3.05;;
32242;SDS011;18731;42.830;24.390;2022-08-11T19:22:19;6.30;;;2.85;;
32242;SDS011;18731;42.830;24.390;2022-08-11T19:25:05;3.35;;;2.83;;
32242;SDS011;18731;42.830;24.390;2022-08-11T19:27:51;3.15;;;2.85;;
32242;SDS011;18731;42.830;24.390;2022-08-11T19:30:36;4.55;;;2.97;;
32242;SDS011;18731;42.830;24.390;2022-08-11T19:33:22;6.30;;;3.30;;
32242;SDS011;18731;42.830;24.390;2022-08-11T19:36:07;3.60;;;3.13;;
32242;SDS011;18731;42.830;24.390;2022-08-11T19:38:53;5.82;;;2.92;;
32242;SDS011;18731;42.830;24.390;2022-08-11T19:41:38;3.22;;;2.90;;
32242;SDS011;18731;42.830;24.390;2022-08-11T19:44:25;4.15;;;3.20;;
32242;SDS011;18731;42.830;24.390;2022-08-11T19:47:11;6.00;;;3.05;;
32242;SDS011;18731;42.830;24.390;2022-08-11T19:49:56;3.63;;;3.10;;
32242;SDS011;18731;42.830;24.390;2022-08-11T19:52:42;5.75;;;3.17;;
32242;SDS011;18731;42.830;24.390;2022-08-11T19:55:27;6.47;;;3.70;;
32242;SDS011;18731;42.830;24.390;2022-08-11T19:58:12;5.25;;;3.60;;
32242;SDS011;18731;42.830;24.390;2022-08-11T20:00:57;5.85;;;3.28;;
32242;SDS011;18731;42.830;24.390;2022-08-11T20:03:41;5.10;;;3.13;;
32242;SDS011;18731;42.830;24.390;2022-08-11T20:06:26;5.35;;;3.30;;
32242;SDS011;18731;42.830;24.390;2022-08-11T20:09:11;5.65;;;3.10;;
32242;SDS011;18731;42.830;24.390;2022-08-11T20:11:57;3.92;;;2.92;;
32242;SDS011;18731;42.830;24.390;2022-08-11T20:14:44;4.72;;;3.05;;
32242;SDS011;18731;42.830;24.390;2022-08-11T20:17:32;6.88;;;3.40;;
32242;SDS011;18731;42.830;24.390;2022-08-11T20:20:21;4.72;;;2.88;;
32242;SDS011;18731;42.830;24.390;2022-08-11T20:23:08;8.15;;;3.13;;
32242;SDS011;18731;42.830;24.390;2022-08-11T20:25:55;4.90;;;3.30;;
32242;SDS011;18731;42.830;24.390;2022-08-11T20:28:42;3.20;;;2.47;;
32242;SDS011;18731;42.830;24.390;2022-08-11T20:31:27;5.28;;;3.00;;
32242;SDS011;18731;42.830;24.390;2022-08-11T20:34:12;3.47;;;2.95;;
32242;SDS011;18731;42.830;24.390;2022-08-11T20:36:59;4.45;;;3.03;;
32242;SDS011;18731;42.830;24.390;2022-08-11T20:39:45;4.15;;;3.17;;
32242;SDS011;18731;42.830;24.390;2022-08-11T20:42:31;7.05;;;2.85;;
32242;SDS011;18731;42.830;24.390;2022-08-11T20:45:18;4.25;;;3.08;;
32242;SDS011;18731;42.830;24.390;2022-08-11T20:48:03;7.78;;;3.05;;
32242;SDS011;18731;42.830;24.390;2022-08-11T20:50:49;4.00;;;3.35;;
32242;SDS011;18731;42.830;24.390;2022-08-11T20:53:34;6.47;;;3.00;;
32242;SDS011;18731;42.830;24.390;2022-08-11T20:56:23;6.32;;;3.05;;